Time;durP1;ratioP1;P1;durP2;ratioP2;P2;SDS_P1;SDS_P2;PMS_P1;PMS_P2;Temp;Humidity;BMP_temperature;BMP_pressure;BME280_temperature;BME280_humidity;BME280_pressure;Samples;Min_cycle;Max_cycle;Signal;HPM_P1;HPM_P2
2023/07/15 00:01:39;;;;;;;7.47;2.60;;;;;;;20.56;100.00;100292.09;5031829;28;20500;-58
2023/07/15 00:04:13;;;;;;;6.88;2.58;;;;;;;20.46;100.00;100294.22;5033106;28;20080;-58
2023/07/15 00:06:42;;;;;;;5.85;2.20;;;;;;;20.50;100.00;100290.16;5031656;28;20385;-58
2023/07/15 00:09:10;;;;;;;6.63;2.85;;;;;;;20.49;100.00;100285.84;5031045;28;20591;-59
2023/07/15 00:11:42;;;;;;;6.28;2.65;;;;;;;20.42;100.00;100278.53;5031786;28;20073;-59
2023/07/15 00:14:16;;;;;;;6.38;2.60;;;;;;;20.52;99.89;100275.63;5030387;28;20053;-59
2023/07/15 00:16:45;;;;;;;4.90;2.40;;;;;;;20.49;99.46;100280.50;5030588;28;20076;-59
2023/07/15 00:19:13;;;;;;;11.02;2.83;;;;;;;20.39;99.06;100278.06;5030387;28;20432;-60
2023/07/15 00:21:41;;;;;;;6.85;2.47;;;;;;;20.34;100.00;100277.75;5030340;28;20166;-60
2023/07/15 00:24:10;;;;;;;6.53;2.65;;;;;;;20.35;100.00;100279.44;5030324;28;20060;-60
2023/07/15 00:26:39;;;;;;;9.18;3.00;;;;;;;20.36;100.00;100281.09;5029947;28;20084;-59
2023/07/15 00:29:08;;;;;;;8.88;2.47;;;;;;;20.33;99.33;100273.41;5028334;28;20045;-60
2023/07/15 00:31:37;;;;;;;7.57;2.80;;;;;;;20.39;99.54;100278.06;5032723;28;20124;-60
2023/07/15 00:34:06;;;;;;;7.50;2.40;;;;;;;20.36;97.35;100270.41;5030181;28;20077;-60
2023/07/15 00:36:35;;;;;;;5.32;2.22;;;;;;;20.36;97.50;100273.09;5029699;28;20045;-58
2023/07/15 00:39:04;;;;;;;6.53;2.42;;;;;;;20.37;96.25;100274.72;5033448;28;20053;-58
2023/07/15 00:41:35;;;;;;;4.95;1.95;;;;;;;20.32;95.36;100263.78;5031295;28;20099;-61
2023/07/15 00:44:05;;;;;;;6.20;2.33;;;;;;;20.42;94.38;100270.53;5028320;28;20041;-58
2023/07/15 00:47:08;;;;;;;6.50;2.30;;;;;;;20.36;97.68;100265.06;5032683;28;20057;-58
2023/07/15 00:49:38;;;;;;;4.95;2.13;;;;;;;20.32;97.36;100269.94;5029261;28;20088;-57
2023/07/15 00:52:10;;;;;;;7.40;2.25;;;;;;;20.32;96.00;100272.59;5030112;28;20052;-57
2023/07/15 00:54:46;;;;;;;8.10;2.47;;;;;;;20.31;96.22;100268.25;5029058;28;20392;-59
2023/07/15 00:57:16;;;;;;;7.70;2.58;;;;;;;20.32;95.49;100256.59;5029798;28;20050;-59
2023/07/15 00:59:46;;;;;;;6.28;2.40;;;;;;;20.34;95.71;100257.25;5028469;28;20076;-57
2023/07/15 01:02:15;;;;;;;5.68;2.20;;;;;;;20.37;94.81;100261.38;5033216;28;20045;-57
2023/07/15 01:04:45;;;;;;;7.07;2.10;;;;;;;20.39;93.90;100252.19;5030542;28;20052;-58
2023/07/15 01:07:15;;;;;;;4.95;2.05;;;;;;;20.48;92.85;100257.44;5029831;28;20111;-57
2023/07/15 01:09:46;;;;;;;4.70;2.00;;;;;;;20.54;94.08;100262.09;5029483;28;20766;-59
2023/07/15 01:12:15;;;;;;;9.35;2.40;;;;;;;20.64;91.84;100265.34;5029401;28;20103;-58
2023/07/15 01:14:44;;;;;;;4.32;2.10;;;;;;;20.55;94.47;100261.91;5025708;28;20053;-59
2023/07/15 01:17:12;;;;;;;6.55;2.30;;;;;;;20.65;91.30;100274.19;5029883;28;20057;-59
2023/07/15 01:19:41;;;;;;;5.57;2.58;;;;;;;20.66;92.65;100275.88;5028553;28;20049;-60
2023/07/15 01:22:11;;;;;;;7.85;2.42;;;;;;;20.66;91.18;100274.00;5028559;28;20049;-60
2023/07/15 01:24:40;;;;;;;4.70;2.08;;;;;;;20.63;92.07;100271.72;5028421;28;20041;-60
2023/07/15 01:27:09;;;;;;;6.32;2.40;;;;;;;20.68;92.39;100274.72;5029388;28;20076;-60
2023/07/15 01:29:37;;;;;;;6.57;2.28;;;;;;;20.74;90.73;100273.16;5030330;28;20539;-60
2023/07/15 01:32:06;;;;;;;5.65;2.10;;;;;;;20.82;90.39;100266.88;5032476;28;20053;-60
2023/07/15 01:34:36;;;;;;;6.65;2.10;;;;;;;20.78;90.98;100274.44;5029200;28;20056;-60
2023/07/15 01:37:05;;;;;;;6.60;2.45;;;;;;;20.79;90.72;100277.94;5029579;28;20440;-59
2023/07/15 01:39:34;;;;;;;6.22;2.35;;;;;;;20.84;90.64;100275.56;5032245;28;20065;-59
2023/07/15 01:42:04;;;;;;;5.78;2.22;;;;;;;20.85;91.26;100285.25;5032308;28;20041;-58
2023/07/15 01:44:35;;;;;;;7.30;2.25;;;;;;;20.82;92.49;100274.91;5032705;28;20465;-59
2023/07/15 01:47:03;;;;;;;6.22;2.40;;;;;;;20.76;92.79;100268.44;5032129;28;20049;-59
2023/07/15 01:49:31;;;;;;;5.97;2.15;;;;;;;20.80;90.37;100271.59;5028317;28;20045;-57
2023/07/15 01:52:02;;;;;;;4.22;2.10;;;;;;;20.74;92.00;100262.47;5030333;28;20053;-59
2023/07/15 01:54:31;;;;;;;6.70;2.63;;;;;;;20.72;93.60;100262.66;5032167;28;20113;-59
2023/07/15 01:56:59;;;;;;;4.82;2.00;;;;;;;20.70;95.81;100256.66;5028786;28;20049;-59
2023/07/15 01:59:28;;;;;;;5.30;2.28;;;;;;;20.70;92.41;100261.16;5026839;28;20049;-59
2023/07/15 02:01:58;;;;;;;7.07;2.30;;;;;;;20.65;92.40;100261.66;5031973;28;20044;-59
2023/07/15 02:04:26;;;;;;;6.85;1.92;;;;;;;20.70;91.92;100259.31;5032177;28;20220;-59
2023/07/15 02:06:54;;;;;;;4.72;2.10;;;;;;;20.62;93.35;100262.03;5030265;28;20941;-59
2023/07/15 02:09:23;;;;;;;5.20;2.28;;;;;;;20.64;92.82;100261.84;5027980;28;20064;-60
2023/07/15 02:11:54;;;;;;;4.35;2.00;;;;;;;20.57;94.34;100264.41;5027893;28;20582;-60
2023/07/15 02:14:22;;;;;;;6.10;2.20;;;;;;;20.47;94.34;100267.31;5026671;28;20068;-60
2023/07/15 02:16:52;;;;;;;5.85;2.40;;;;;;;20.40;96.27;100261.84;5028458;28;20163;-60
2023/07/15 02:19:20;;;;;;;5.15;2.35;;;;;;;20.34;95.26;100269.75;5028293;28;20073;-57
2023/07/15 02:21:48;;;;;;;7.22;2.10;;;;;;;20.28;96.55;100273.97;5028535;28;20046;-58
2023/07/15 02:24:16;;;;;;;6.22;2.20;;;;;;;20.25;97.98;100269.00;5027814;28;20511;-60
2023/07/15 02:26:45;;;;;;;7.03;2.08;;;;;;;20.18;100.00;100274.19;5027781;28;20049;-59
2023/07/15 02:29:14;;;;;;;5.78;2.00;;;;;;;20.13;100.00;100273.91;5029555;28;20129;-59
2023/07/15 02:31:42;;;;;;;6.43;1.90;;;;;;;20.06;100.00;100271.09;5027670;28;20107;-60
2023/07/15 02:34:13;;;;;;;7.25;2.17;;;;;;;20.00;100.00;100278.97;5030149;28;20084;-57
2023/07/15 02:36:41;;;;;;;4.35;1.95;;;;;;;19.96;100.00;100283.00;5031633;28;20041;-58
2023/07/15 02:39:09;;;;;;;6.07;2.33;;;;;;;19.90;100.00;100276.53;5031247;28;20057;-58
2023/07/15 02:41:37;;;;;;;6.15;2.42;;;;;;;19.85;100.00;100279.72;5031443;28;20103;-58
2023/07/15 02:44:05;;;;;;;4.57;1.85;;;;;;;19.76;100.00;100273.56;5031570;28;20103;-58
2023/07/15 02:46:33;;;;;;;4.82;2.25;;;;;;;19.71;100.00;100280.41;5029310;28;20115;-58
2023/07/15 02:49:02;;;;;;;6.68;2.13;;;;;;;19.62;100.00;100289.44;5028095;28;20115;-58
2023/07/15 02:51:32;;;;;;;4.05;2.08;;;;;;;19.60;100.00;100278.97;5030251;28;20045;-58
2023/07/15 02:54:02;;;;;;;5.78;2.00;;;;;;;19.53;100.00;100286.00;5031417;28;20118;-58
2023/07/15 02:56:33;;;;;;;5.72;2.20;;;;;;;19.50;100.00;100286.34;5030923;28;20079;-59
2023/07/15 02:59:01;;;;;;;4.93;2.00;;;;;;;19.43;100.00;100280.88;5029720;28;20053;-58
2023/07/15 03:01:32;;;;;;;4.97;1.80;;;;;;;19.37;100.00;100282.38;5029098;28;20045;-59
2023/07/15 03:04:01;;;;;;;7.20;2.10;;;;;;;19.34;100.00;100287.22;5027707;28;20115;-57
2023/07/15 03:06:30;;;;;;;5.18;2.10;;;;;;;19.36;100.00;100293.19;5028129;28;20045;-58
2023/07/15 03:08:59;;;;;;;6.55;2.05;;;;;;;19.32;100.00;100283.88;5029212;28;20056;-60
2023/07/15 03:11:28;;;;;;;4.65;2.05;;;;;;;19.24;100.00;100282.09;5033660;28;20088;-59
2023/07/15 03:13:56;;;;;;;5.13;2.25;;;;;;;19.21;100.00;100287.72;5035110;28;20073;-59
2023/07/15 03:16:24;;;;;;;5.80;2.03;;;;;;;19.20;100.00;100283.44;5032170;28;20128;-59
2023/07/15 03:18:52;;;;;;;5.38;2.20;;;;;;;19.14;100.00;100276.94;5031168;28;20042;-59
2023/07/15 03:21:20;;;;;;;5.40;1.90;;;;;;;19.07;100.00;100268.81;5031740;28;20558;-59
2023/07/15 03:23:48;;;;;;;4.85;1.92;;;;;;;19.00;100.00;100270.47;5031469;28;20041;-58
2023/07/15 03:26:18;;;;;;;8.32;2.30;;;;;;;18.98;100.00;100280.47;5031314;28;20045;-58
2023/07/15 03:28:46;;;;;;;5.13;2.10;;;;;;;19.00;100.00;100285.63;5030527;28;20045;-58
2023/07/15 03:31:14;;;;;;;5.05;1.90;;;;;;;18.95;100.00;100288.81;5030947;28;20045;-58
2023/07/15 03:33:43;;;;;;;8.27;2.50;;;;;;;18.91;100.00;100284.81;5031262;28;20049;-58
2023/07/15 03:36:11;;;;;;;7.65;2.17;;;;;;;18.89;100.00;100289.47;5032351;28;20045;-58
2023/07/15 03:38:40;;;;;;;6.72;2.22;;;;;;;18.84;100.00;100287.28;5034613;28;20057;-58
2023/07/15 03:41:08;;;;;;;3.53;2.00;;;;;;;18.86;100.00;100273.78;5032164;28;20073;-58
2023/07/15 03:43:40;;;;;;;6.65;2.25;;;;;;;18.83;100.00;100274.09;5029976;28;20053;-58
2023/07/15 03:46:08;;;;;;;7.55;2.35;;;;;;;18.79;100.00;100278.09;5034435;28;20076;-58
2023/07/15 03:48:36;;;;;;;5.10;2.20;;;;;;;18.77;100.00;100274.78;5034451;28;20492;-59
2023/07/15 03:51:06;;;;;;;6.22;2.42;;;;;;;18.75;100.00;100277.63;5033012;28;20076;-60
2023/07/15 03:53:34;;;;;;;6.60;2.33;;;;;;;18.74;100.00;100276.78;5029529;28;20049;-61
2023/07/15 03:56:02;;;;;;;4.63;2.20;;;;;;;18.66;100.00;100284.75;5031305;28;20052;-59
2023/07/15 03:58:31;;;;;;;6.18;2.22;;;;;;;18.62;100.00;100286.09;5029724;28;20726;-59
2023/07/15 04:01:01;;;;;;;6.32;2.03;;;;;;;18.62;100.00;100282.63;5030561;28;20566;-59
2023/07/15 04:03:29;;;;;;;7.78;2.35;;;;;;;18.58;100.00;100287.44;5030882;28;20099;-60
2023/07/15 04:05:57;;;;;;;4.43;2.10;;;;;;;18.57;100.00;100289.28;5030946;28;20388;-60
2023/07/15 04:08:25;;;;;;;5.55;2.40;;;;;;;18.56;100.00;100292.91;5030789;28;20104;-60
2023/07/15 04:10:54;;;;;;;8.07;2.30;;;;;;;18.56;100.00;100292.09;5029383;28;20057;-60
2023/07/15 04:13:22;;;;;;;5.82;1.90;;;;;;;18.53;100.00;100293.25;5030073;28;20045;-61
2023/07/15 04:15:50;;;;;;;5.93;1.83;;;;;;;18.57;100.00;100293.78;5029560;28;20115;-60
2023/07/15 04:18:20;;;;;;;5.97;2.22;;;;;;;18.52;100.00;100290.75;5030816;28;20052;-60
2023/07/15 04:20:48;;;;;;;6.40;2.35;;;;;;;18.53;100.00;100289.78;5032388;28;20436;-60
2023/07/15 04:23:16;;;;;;;5.28;2.30;;;;;;;18.50;100.00;100290.09;5030541;28;20137;-60
2023/07/15 04:25:46;;;;;;;7.50;2.60;;;;;;;18.46;100.00;100284.28;5029369;28;20056;-60
2023/07/15 04:28:15;;;;;;;5.03;2.47;;;;;;;18.46;100.00;100294.06;5029843;28;20124;-60
2023/07/15 04:30:43;;;;;;;5.57;2.30;;;;;;;18.41;100.00;100298.06;5028738;28;20045;-60
2023/07/15 04:33:11;;;;;;;4.78;2.20;;;;;;;18.42;100.00;100290.94;5030740;28;20526;-60
2023/07/15 04:35:41;;;;;;;4.05;2.05;;;;;;;18.49;100.00;100301.75;5030012;28;20053;-60
2023/07/15 04:38:10;;;;;;;5.15;2.33;;;;;;;18.45;100.00;100292.41;5030595;28;20063;-59
2023/07/15 04:40:41;;;;;;;6.95;2.40;;;;;;;18.48;100.00;100292.09;5029716;28;20069;-59
2023/07/15 04:43:09;;;;;;;6.35;2.20;;;;;;;18.46;100.00;100294.94;5031421;28;20046;-59
2023/07/15 04:45:37;;;;;;;6.93;2.65;;;;;;;18.43;100.00;100295.22;5028413;28;20041;-58
2023/07/15 04:48:06;;;;;;;4.50;2.25;;;;;;;18.42;100.00;100299.75;5030391;28;20120;-58
2023/07/15 04:50:38;;;;;;;5.40;2.28;;;;;;;18.45;100.00;100298.56;5029336;28;20134;-59
2023/07/15 04:53:08;;;;;;;6.78;2.50;;;;;;;18.50;100.00;100303.41;5030582;28;20156;-59
2023/07/15 04:55:36;;;;;;;5.13;2.10;;;;;;;18.55;100.00;100309.88;5029011;28;20049;-58
2023/07/15 04:58:07;;;;;;;7.03;2.30;;;;;;;18.58;100.00;100306.06;5029681;28;20049;-59
2023/07/15 05:00:36;;;;;;;8.63;2.80;;;;;;;18.64;100.00;100312.56;5031452;28;20052;-59
2023/07/15 05:03:06;;;;;;;6.88;2.42;;;;;;;18.77;100.00;100306.75;5033152;28;20049;-60
2023/07/15 05:05:35;;;;;;;5.85;2.45;;;;;;;18.82;100.00;100315.91;5032989;28;20049;-61
2023/07/15 05:08:12;;;;;;;5.22;2.17;;;;;;;18.83;100.00;100311.41;5033260;28;20037;-58
2023/07/15 05:10:40;;;;;;;6.15;2.70;;;;;;;18.85;100.00;100315.56;5030652;28;20108;-60
2023/07/15 05:13:12;;;;;;;7.30;2.35;;;;;;;18.89;100.00;100319.59;5028639;28;20484;-60
2023/07/15 05:15:40;;;;;;;5.22;2.55;;;;;;;18.95;100.00;100318.09;5028181;28;20053;-60
2023/07/15 05:18:09;;;;;;;5.55;2.55;;;;;;;19.03;100.00;100319.91;5029771;28;20504;-60
2023/07/15 05:20:38;;;;;;;5.22;2.38;;;;;;;19.07;100.00;100319.44;5029399;28;20136;-59
2023/07/15 05:23:06;;;;;;;7.80;2.50;;;;;;;19.17;100.00;100321.91;5029574;28;20053;-59
2023/07/15 05:25:39;;;;;;;6.75;2.20;;;;;;;19.21;100.00;100317.06;5029279;28;20033;-61
2023/07/15 05:28:07;;;;;;;5.88;2.80;;;;;;;19.27;100.00;100318.25;5031845;28;20124;-60
2023/07/15 05:30:36;;;;;;;6.18;2.53;;;;;;;19.34;100.00;100319.22;5025504;28;20227;-60
2023/07/15 05:33:04;;;;;;;6.93;2.40;;;;;;;19.39;100.00;100315.03;5028972;28;20060;-59
2023/07/15 05:35:32;;;;;;;6.45;2.45;;;;;;;19.47;100.00;100316.00;5028281;28;20060;-60
2023/07/15 05:38:04;;;;;;;7.60;2.65;;;;;;;19.54;100.00;100325.00;5031876;28;20512;-59
2023/07/15 05:40:32;;;;;;;7.03;2.95;;;;;;;19.61;100.00;100317.16;5032191;28;20123;-61
2023/07/15 05:43:01;;;;;;;5.68;2.70;;;;;;;19.75;100.00;100311.91;5029148;28;20045;-60
2023/07/15 05:45:30;;;;;;;6.40;2.50;;;;;;;19.91;100.00;100313.69;5027790;28;20068;-59
2023/07/15 05:47:58;;;;;;;5.97;2.45;;;;;;;20.05;100.00;100320.13;5028638;28;20052;-60
2023/07/15 05:50:29;;;;;;;8.07;2.60;;;;;;;20.15;100.00;100321.75;5028804;28;20046;-60
2023/07/15 05:52:57;;;;;;;5.90;2.83;;;;;;;20.23;100.00;100317.22;5029295;28;20056;-59
2023/07/15 05:55:27;;;;;;;5.80;2.63;;;;;;;20.29;100.00;100312.16;5028715;28;20041;-61
2023/07/15 05:57:55;;;;;;;5.72;2.70;;;;;;;20.38;100.00;100311.97;5029804;28;20559;-60
2023/07/15 06:00:28;;;;;;;6.93;2.45;;;;;;;20.52;100.00;100315.69;5032043;28;20045;-60
2023/07/15 06:02:58;;;;;;;4.90;2.50;;;;;;;20.58;100.00;100316.81;5031861;28;20504;-60
2023/07/15 06:05:27;;;;;;;5.05;2.45;;;;;;;20.67;100.00;100321.09;5031768;28;20041;-60
2023/07/15 06:07:54;;;;;;;8.68;2.80;;;;;;;20.83;100.00;100322.00;5031490;28;20659;-61
2023/07/15 06:10:22;;;;;;;7.85;2.70;;;;;;;20.99;100.00;100321.03;5028100;28;20527;-60
2023/07/15 06:12:51;;;;;;;7.38;2.47;;;;;;;21.04;100.00;100330.16;5029878;28;20037;-60
2023/07/15 06:15:19;;;;;;;7.50;2.55;;;;;;;21.11;100.00;100330.28;5031518;28;20045;-61
2023/07/15 06:17:49;;;;;;;7.40;2.35;;;;;;;21.26;100.00;100330.28;5029009;28;20566;-60
2023/07/15 06:20:20;;;;;;;4.85;2.30;;;;;;;21.37;100.00;100329.00;5028379;28;20076;-60
2023/07/15 06:22:48;;;;;;;8.00;2.80;;;;;;;21.49;100.00;100324.03;5029811;28;20141;-61
2023/07/15 06:25:17;;;;;;;6.03;2.55;;;;;;;21.62;100.00;100318.88;5030284;28;20071;-60
2023/07/15 06:27:45;;;;;;;6.88;2.45;;;;;;;21.70;100.00;100313.44;5028329;28;20079;-60
2023/07/15 06:30:14;;;;;;;7.55;3.05;;;;;;;21.82;100.00;100313.81;5026588;28;20598;-61
2023/07/15 06:32:42;;;;;;;9.75;2.30;;;;;;;21.95;100.00;100313.13;5026320;28;20412;-60
2023/07/15 06:35:11;;;;;;;6.50;2.80;;;;;;;22.11;100.00;100315.59;5029802;28;20045;-60
2023/07/15 06:37:40;;;;;;;9.45;2.50;;;;;;;22.27;100.00;100319.88;5026609;28;20061;-61
2023/07/15 06:40:09;;;;;;;4.30;2.15;;;;;;;22.39;100.00;100322.13;5028272;28;20132;-61
2023/07/15 06:42:37;;;;;;;4.78;2.42;;;;;;;22.57;100.00;100321.66;5027402;28;20041;-61
2023/07/15 06:45:06;;;;;;;7.22;2.55;;;;;;;22.72;100.00;100332.31;5026553;28;20060;-60
2023/07/15 06:47:34;;;;;;;5.93;2.08;;;;;;;22.90;100.00;100337.22;5028096;28;20045;-60
2023/07/15 06:50:03;;;;;;;5.32;2.15;;;;;;;23.25;100.00;100338.13;5027863;28;20096;-61
2023/07/15 06:52:35;;;;;;;7.82;2.42;;;;;;;23.53;100.00;100326.56;5027726;28;20041;-62
2023/07/15 06:55:03;;;;;;;5.50;2.05;;;;;;;23.55;100.00;100334.41;5027729;28;20041;-61
2023/07/15 06:57:31;;;;;;;5.85;1.90;;;;;;;23.75;100.00;100332.66;5027921;28;20049;-61
2023/07/15 07:00:00;;;;;;;4.95;1.85;;;;;;;23.92;100.00;100337.72;5026476;28;20073;-61
2023/07/15 07:02:28;;;;;;;6.05;1.90;;;;;;;24.08;100.00;100329.31;5030436;28;20512;-61
2023/07/15 07:04:56;;;;;;;8.10;2.00;;;;;;;24.16;100.00;100322.94;5027404;28;20127;-61
2023/07/15 07:07:24;;;;;;;7.28;2.00;;;;;;;24.19;100.00;100335.94;5027578;28;20079;-61
2023/07/15 07:09:54;;;;;;;5.38;1.80;;;;;;;24.34;100.00;100332.25;5027315;28;20111;-62
2023/07/15 07:12:22;;;;;;;3.83;1.60;;;;;;;24.55;100.00;100340.16;5027852;28;20156;-62
2023/07/15 07:14:50;;;;;;;5.90;1.80;;;;;;;24.79;100.00;100333.38;5027180;28;20096;-62
2023/07/15 07:17:19;;;;;;;5.80;1.90;;;;;;;24.99;100.00;100346.00;5029591;28;20084;-57
2023/07/15 07:19:47;;;;;;;6.47;2.03;;;;;;;25.17;100.00;100352.63;5027695;28;20447;-57
2023/07/15 07:22:15;;;;;;;4.28;1.70;;;;;;;25.21;100.00;100351.16;5028129;28;20128;-58
2023/07/15 07:24:45;;;;;;;4.95;1.60;;;;;;;25.40;100.00;100342.28;5026972;28;20034;-59
2023/07/15 07:27:15;;;;;;;4.00;1.73;;;;;;;25.40;100.00;100334.22;5030986;28;20107;-61
2023/07/15 07:29:43;;;;;;;6.80;1.73;;;;;;;25.60;100.00;100325.25;5029035;28;20400;-62
2023/07/15 07:32:11;;;;;;;5.38;1.83;;;;;;;25.69;98.35;100320.44;5027959;28;20055;-60
2023/07/15 07:34:39;;;;;;;5.10;1.73;;;;;;;25.92;96.20;100312.69;5026568;28;20580;-62
2023/07/15 07:37:11;;;;;;;6.95;2.60;;;;;;;25.97;93.72;100329.06;5027652;28;20115;-61
2023/07/15 07:39:39;;;;;;;5.32;1.70;;;;;;;26.09;93.46;100334.59;4990613;28;20124;-61
2023/07/15 07:42:08;;;;;;;5.03;1.90;;;;;;;26.29;91.65;100334.50;4988049;28;20054;-62
2023/07/15 07:44:38;;;;;;;4.90;1.83;;;;;;;26.52;90.03;100341.22;4986037;28;20046;-61
2023/07/15 07:47:06;;;;;;;5.30;1.90;;;;;;;26.62;87.40;100344.25;4990764;28;20046;-62
2023/07/15 07:49:34;;;;;;;6.53;1.92;;;;;;;26.61;86.79;100347.16;4991374;28;20440;-62
2023/07/15 07:52:03;;;;;;;4.18;1.80;;;;;;;26.61;86.77;100349.84;4988453;28;20054;-61
2023/07/15 07:54:33;;;;;;;6.22;1.92;;;;;;;26.53;84.08;100342.03;4988971;28;20038;-60
2023/07/15 07:57:01;;;;;;;4.82;1.80;;;;;;;26.52;85.53;100343.06;4991720;28;20042;-60
2023/07/15 07:59:30;;;;;;;6.30;2.10;;;;;;;26.60;85.37;100349.03;4990045;28;20049;-58
2023/07/15 08:01:59;;;;;;;5.97;2.08;;;;;;;26.57;85.47;100351.34;4991725;28;20077;-57
2023/07/15 08:04:27;;;;;;;5.72;1.88;;;;;;;26.89;84.83;100345.97;4991084;28;20073;-57
2023/07/15 08:06:59;;;;;;;4.47;1.80;;;;;;;27.17;84.84;100350.88;4991571;28;20097;-57
2023/07/15 08:09:28;;;;;;;6.25;2.08;;;;;;;27.25;85.06;100353.28;4992011;28;20165;-58
2023/07/15 08:11:56;;;;;;;4.43;1.70;;;;;;;26.82;84.33;100336.03;4991717;28;20046;-60
2023/07/15 08:14:24;;;;;;;4.53;1.80;;;;;;;27.11;85.13;100349.91;4990130;28;20081;-58
2023/07/15 08:16:52;;;;;;;4.90;1.73;;;;;;;27.46;83.51;100346.69;4991286;28;20126;-62
2023/07/15 08:19:22;;;;;;;6.20;1.95;;;;;;;27.63;82.76;100343.41;4991236;28;20186;-62
2023/07/15 08:21:50;;;;;;;4.68;1.73;;;;;;;27.87;82.85;100338.97;4991200;28;20409;-57
2023/07/15 08:24:18;;;;;;;7.10;1.90;;;;;;;27.95;82.37;100335.09;4990889;28;20825;-61
2023/07/15 08:26:46;;;;;;;6.15;1.75;;;;;;;27.76;83.11;100331.59;4993509;28;20046;-62
2023/07/15 08:29:14;;;;;;;4.82;1.73;;;;;;;27.63;83.54;100341.50;4989603;28;20497;-62
2023/07/15 08:31:43;;;;;;;4.88;1.50;;;;;;;27.82;86.25;100336.94;4991658;28;20054;-61
2023/07/15 08:34:11;;;;;;;4.13;1.23;;;;;;;27.64;83.78;100347.75;4991469;28;20389;-62
2023/07/15 08:36:40;;;;;;;4.72;1.48;;;;;;;27.63;85.40;100354.19;4990539;28;20129;-60
2023/07/15 08:39:09;;;;;;;5.15;1.40;;;;;;;27.81;86.92;100361.47;5021861;28;20053;-63
2023/07/15 08:41:39;;;;;;;3.80;1.42;;;;;;;27.73;85.58;100359.91;5029854;28;20416;-62
2023/07/15 08:44:08;;;;;;;4.25;1.30;;;;;;;27.56;85.23;100354.28;5028386;28;20041;-61
2023/07/15 08:46:37;;;;;;;3.35;1.50;;;;;;;27.69;87.48;100347.88;5030012;28;20060;-62
2023/07/15 08:49:05;;;;;;;6.38;1.50;;;;;;;27.26;86.72;100365.75;5030351;28;20128;-57
2023/07/15 08:51:35;;;;;;;3.33;1.20;;;;;;;27.50;87.31;100360.59;5030136;28;20057;-61
2023/07/15 08:54:07;;;;;;;3.33;1.30;;;;;;;27.65;87.88;100360.19;5030116;28;20077;-60
2023/07/15 08:56:37;;;;;;;3.67;1.30;;;;;;;27.55;86.59;100365.28;5033414;28;20514;-62
2023/07/15 08:59:06;;;;;;;2.60;1.15;;;;;;;27.63;88.54;100365.00;5033326;28;20050;-62
2023/07/15 09:01:36;;;;;;;5.00;1.70;;;;;;;27.95;88.67;100367.53;5031183;28;20467;-57
2023/07/15 09:04:04;;;;;;;5.35;1.55;;;;;;;28.01;88.33;100371.25;5029946;28;20133;-58
2023/07/15 09:06:33;;;;;;;3.78;1.25;;;;;;;28.04;85.57;100373.50;5030773;28;20045;-63
2023/07/15 09:09:01;;;;;;;2.70;1.25;;;;;;;28.17;82.27;100379.56;5029510;28;20103;-62
2023/07/15 09:11:40;;;;;;;4.00;1.33;;;;;;;28.08;85.99;100370.09;5028889;28;20119;-63
2023/07/15 09:14:15;;;;;;;2.50;1.23;;;;;;;28.02;84.15;100375.59;5027959;28;20053;-59
2023/07/15 09:16:44;;;;;;;4.18;1.70;;;;;;;27.98;83.84;100388.72;5029178;28;20048;-59
2023/07/15 09:19:13;;;;;;;4.10;1.40;;;;;;;27.80;84.79;100393.06;5029186;28;20045;-58
2023/07/15 09:21:52;;;;;;;4.07;1.30;;;;;;;27.71;83.17;100399.81;5028863;28;20049;-58
2023/07/15 09:24:21;;;;;;;4.60;1.35;;;;;;;27.52;85.76;100403.56;5030206;28;20061;-60
2023/07/15 09:26:55;;;;;;;3.53;1.35;;;;;;;27.24;85.88;100404.78;5032670;28;20049;-58
2023/07/15 09:29:23;;;;;;;6.60;1.63;;;;;;;27.32;86.73;100413.47;5027613;28;20053;-59
2023/07/15 09:31:54;;;;;;;10.10;1.65;;;;;;;27.38;87.78;100417.16;5027630;28;20056;-59
2023/07/15 09:34:24;;;;;;;4.65;1.38;;;;;;;27.28;86.96;100420.34;5028554;28;20053;-59
2023/07/15 09:36:52;;;;;;;4.53;1.75;;;;;;;27.28;87.23;100433.84;5029296;28;20156;-59
2023/07/15 09:39:23;;;;;;;3.83;1.35;;;;;;;26.93;87.88;100438.88;5026561;28;20054;-58
2023/07/15 09:42:03;;;;;;;3.47;1.40;;;;;;;26.95;88.33;100434.09;5031579;28;20121;-58
2023/07/15 09:44:37;;;;;;;3.10;1.25;;;;;;;26.47;90.51;100416.50;5032367;28;20076;-59
2023/07/15 09:47:06;;;;;;;4.28;1.45;;;;;;;26.50;90.16;100424.16;5032513;28;20046;-63
2023/07/15 09:49:35;;;;;;;3.90;1.60;;;;;;;26.53;90.80;100421.03;5032252;28;20052;-63
2023/07/15 09:52:05;;;;;;;3.20;1.42;;;;;;;26.62;90.64;100402.75;5032447;28;20042;-62
2023/07/15 09:54:35;;;;;;;3.33;1.13;;;;;;;26.61;92.38;100412.72;5028650;28;20111;-63
2023/07/15 09:57:10;;;;;;;4.40;1.50;;;;;;;26.47;94.41;100408.41;5028640;28;20045;-63
2023/07/15 09:59:45;;;;;;;3.70;1.30;;;;;;;26.45;93.45;100408.66;5026392;28;20042;-58
2023/07/15 10:02:26;;;;;;;2.88;1.50;;;;;;;26.67;96.15;100419.09;5028802;28;20057;-59
2023/07/15 10:05:02;;;;;;;4.45;1.50;;;;;;;26.87;94.16;100405.50;5028116;28;20489;-59
2023/07/15 10:07:31;;;;;;;3.83;1.50;;;;;;;26.94;94.15;100418.94;5028859;28;20640;-59
2023/07/15 10:10:00;;;;;;;5.47;1.52;;;;;;;27.06;92.32;100419.88;5030720;28;20045;-59
2023/07/15 10:12:31;;;;;;;3.67;1.42;;;;;;;27.18;94.34;100428.09;5032250;28;20045;-59
2023/07/15 10:15:00;;;;;;;5.03;1.55;;;;;;;27.19;93.27;100427.06;5032060;28;20124;-59
2023/07/15 10:17:34;;;;;;;4.60;1.40;;;;;;;27.06;92.86;100435.25;5031693;28;20504;-59
2023/07/15 10:20:10;;;;;;;4.65;1.50;;;;;;;26.66;89.49;100429.03;5032208;28;20060;-58
2023/07/15 10:22:39;;;;;;;5.78;1.60;;;;;;;26.48;87.43;100428.97;5030615;28;20049;-58
2023/07/15 10:25:11;;;;;;;6.22;2.03;;;;;;;26.54;90.30;100424.56;5029864;28;20052;-59
2023/07/15 10:27:41;;;;;;;4.45;1.60;;;;;;;26.48;88.65;100435.16;5027741;28;20494;-58
2023/07/15 10:30:22;;;;;;;5.90;1.90;;;;;;;26.45;88.56;100430.22;5026597;28;20496;-59
2023/07/15 10:33:11;;;;;;;4.88;1.50;;;;;;;26.19;89.06;100433.84;5028236;28;20079;-61
2023/07/15 10:35:50;;;;;;;6.75;1.92;;;;;;;26.31;89.74;100434.00;5024198;28;20062;-62
2023/07/15 10:38:23;;;;;;;5.75;1.55;;;;;;;26.28;91.38;100442.50;5028721;28;20516;-62
2023/07/15 10:40:53;;;;;;;4.28;1.88;;;;;;;25.91;96.08;100434.94;5026550;28;20099;-63
2023/07/15 10:43:24;;;;;;;3.35;1.50;;;;;;;25.67;98.01;100427.53;5031451;28;20107;-61
2023/07/15 10:45:54;;;;;;;;;;;;;;;25.70;96.57;100427.09;5031946;28;20046;-60
2023/07/15 10:48:29;;;;;;;6.72;1.70;;;;;;;25.44;100.00;100428.78;5031965;28;20011;-61
2023/07/15 10:51:00;;;;;;;2.85;1.42;;;;;;;25.28;100.00;100424.66;5026835;28;20140;-62
2023/07/15 10:53:29;;;;;;;6.35;1.50;;;;;;;25.09;100.00;100421.75;5028436;28;20523;-63
2023/07/15 10:56:01;;;;;;;6.95;1.55;;;;;;;25.02;100.00;100415.53;5031515;28;20041;-58
2023/07/15 10:58:33;;;;;;;7.22;1.80;;;;;;;25.01;100.00;100405.81;5031521;28;20064;-58
2023/07/15 11:01:03;;;;;;;6.80;1.63;;;;;;;24.96;100.00;100410.97;5028533;28;20050;-57
2023/07/15 11:03:33;;;;;;;6.82;1.90;;;;;;;24.68;100.00;100403.06;5027376;28;20055;-62
2023/07/15 11:06:02;;;;;;;4.30;1.60;;;;;;;24.75;100.00;100410.13;5027794;28;20132;-63
2023/07/15 11:08:33;;;;;;;4.22;1.83;;;;;;;24.65;100.00;100412.38;5027133;28;20046;-61
2023/07/15 11:11:02;;;;;;;4.80;1.67;;;;;;;24.59;100.00;100410.47;5026786;28;20056;-60
2023/07/15 11:13:37;;;;;;;4.43;1.50;;;;;;;24.88;100.00;100424.59;5026281;28;20394;-63
2023/07/15 11:16:06;;;;;;;6.13;1.60;;;;;;;25.05;100.00;100417.81;5027285;28;20695;-63
2023/07/15 11:18:37;;;;;;;5.65;1.55;;;;;;;25.00;98.02;100420.28;5027321;28;20061;-62
2023/07/15 11:21:06;;;;;;;3.92;1.55;;;;;;;24.92;100.00;100432.09;5027678;28;20064;-62
2023/07/15 11:23:34;;;;;;;3.97;1.67;;;;;;;24.98;96.85;100427.75;5029882;28;20041;-58
2023/07/15 11:26:08;;;;;;;3.17;1.52;;;;;;;24.97;97.12;100423.38;5031493;28;20103;-57
2023/07/15 11:28:48;;;;;;;4.43;1.75;;;;;;;24.87;94.33;100437.25;5025478;28;20073;-57
2023/07/15 11:31:21;;;;;;;4.72;1.67;;;;;;;25.11;96.67;100433.13;5032109;28;20057;-57
2023/07/15 11:33:52;;;;;;;5.70;2.03;;;;;;;25.11;97.61;100432.28;5032747;28;20047;-60